createdAt,value
2023-05-13T00:00:19.584Z,22.63
2023-05-13T00:05:19.926Z,17.50
2023-05-13T00:07:47.057Z,15.75
2023-05-13T00:10:16.500Z,13.98
2023-05-13T00:12:43.859Z,24.77
2023-05-13T00:15:13.104Z,21.25
2023-05-13T00:17:40.265Z,19.10
2023-05-13T00:20:08.082Z,14.50
2023-05-13T00:22:35.357Z,15.13
2023-05-13T00:25:05.958Z,15.43
2023-05-13T00:27:36.482Z,16.63
2023-05-13T00:30:05.643Z,15.90
2023-05-13T00:32:33.271Z,19.08
2023-05-13T00:35:00.401Z,17.25
2023-05-13T00:37:27.701Z,14.73
2023-05-13T00:39:55.107Z,14.05
2023-05-13T00:42:22.286Z,15.23
2023-05-13T00:44:49.510Z,9.63
2023-05-13T00:47:17.325Z,12.20
2023-05-13T00:49:44.582Z,12.43
2023-05-13T00:52:11.813Z,14.20
2023-05-13T00:54:38.935Z,8.32
2023-05-13T00:57:06.338Z,14.63
2023-05-13T00:59:33.558Z,10.38
2023-05-13T01:02:22.642Z,10.95
2023-05-13T01:04:54.671Z,9.18
2023-05-13T01:07:52.218Z,18.02
2023-05-13T01:10:34.572Z,16.08
2023-05-13T01:13:08.790Z,17.52
2023-05-13T01:15:41.004Z,8.45
2023-05-13T01:18:25.104Z,10.63
2023-05-13T01:20:56.539Z,10.40
2023-05-13T01:23:27.685Z,14.00
2023-05-13T01:25:55.128Z,8.27
2023-05-13T01:28:22.766Z,6.90
2023-05-13T01:30:53.384Z,6.93
2023-05-13T01:33:20.653Z,6.65
2023-05-13T01:35:47.968Z,5.82
2023-05-13T01:38:18.696Z,9.20
2023-05-13T01:40:49.801Z,4.53
2023-05-13T01:43:17.057Z,8.63
2023-05-13T01:45:47.971Z,4.82
2023-05-13T01:48:15.786Z,7.68
2023-05-13T01:50:47.508Z,4.43
2023-05-13T01:55:42.019Z,3.38
2023-05-13T01:58:09.833Z,1.58
2023-05-13T02:00:38.083Z,1.85
2023-05-13T02:03:05.290Z,2.08
2023-05-13T02:05:33.338Z,2.50
2023-05-13T02:08:05.176Z,4.53
2023-05-13T02:10:32.490Z,3.03
2023-05-13T02:13:01.253Z,5.78
2023-05-13T02:15:28.462Z,1.45
2023-05-13T02:17:55.664Z,1.52
2023-05-13T02:20:23.153Z,2.40
2023-05-13T02:22:51.130Z,1.10
2023-05-13T02:25:27.161Z,2.97
2023-05-13T02:27:54.326Z,4.55
2023-05-13T02:30:29.711Z,6.70
2023-05-13T02:32:58.036Z,3.28
2023-05-13T02:35:29.634Z,6.00
2023-05-13T02:37:57.834Z,4.70
2023-05-13T02:40:25.462Z,15.60
2023-05-13T02:42:52.691Z,2.28
2023-05-13T02:45:27.062Z,5.05
2023-05-13T02:47:57.515Z,1.80
2023-05-13T02:50:25.440Z,2.22
2023-05-13T02:52:53.767Z,2.78
2023-05-13T02:55:21.487Z,2.17
2023-05-13T02:57:48.723Z,2.05
2023-05-13T03:00:17.806Z,1.77
2023-05-13T03:02:45.095Z,1.40
2023-05-13T03:05:18.377Z,2.25
2023-05-13T03:07:48.960Z,3.67
2023-05-13T03:10:16.185Z,1.25
2023-05-13T03:12:43.755Z,0.93
2023-05-13T03:15:11.301Z,1.52
2023-05-13T03:17:39.216Z,2.08
2023-05-13T03:20:09.932Z,2.42
2023-05-13T03:22:45.681Z,1.67
2023-05-13T03:25:12.933Z,2.17
2023-05-13T03:28:26.349Z,1.67
2023-05-13T03:30:56.385Z,1.33
2023-05-13T03:33:26.679Z,0.98
2023-05-13T03:35:56.926Z,3.85
2023-05-13T03:38:31.777Z,1.73
2023-05-13T03:41:03.455Z,4.60
2023-05-13T03:43:36.772Z,0.82
2023-05-13T03:46:09.960Z,3.40
2023-05-13T03:48:40.942Z,2.10
2023-05-13T03:51:08.905Z,11.00
2023-05-13T03:53:39.382Z,3.58
2023-05-13T03:56:10.205Z,3.70
2023-05-13T03:58:44.767Z,3.63
2023-05-13T04:01:17.274Z,0.60
2023-05-13T04:03:54.257Z,2.22
2023-05-13T04:06:32.902Z,1.42
2023-05-13T04:09:03.840Z,2.03
2023-05-13T04:11:31.989Z,2.17
2023-05-13T04:14:01.860Z,4.40
2023-05-13T04:16:41.393Z,1.52
2023-05-13T04:19:09.070Z,3.15
2023-05-13T04:21:41.306Z,2.15
2023-05-13T04:24:10.864Z,1.80
2023-05-13T04:26:41.705Z,4.93
2023-05-13T04:29:09.453Z,3.65
2023-05-13T04:31:37.591Z,5.47
2023-05-13T04:34:07.199Z,1.13
2023-05-13T04:36:35.188Z,5.07
2023-05-13T04:39:09.598Z,2.83
2023-05-13T04:41:39.462Z,2.78
2023-05-13T04:44:07.120Z,0.73
2023-05-13T04:49:04.093Z,7.65
2023-05-13T04:51:39.267Z,3.72
2023-05-13T04:54:07.654Z,1.50
2023-05-13T04:56:37.905Z,0.20
2023-05-13T04:59:05.351Z,0.95
2023-05-13T05:04:02.935Z,1.63
2023-05-13T05:06:35.441Z,2.28
2023-05-13T05:09:05.911Z,0.50
2023-05-13T05:11:33.314Z,2.33
2023-05-13T05:14:07.674Z,2.00
2023-05-13T05:16:40.489Z,1.35
2023-05-13T05:19:08.954Z,1.60
2023-05-13T05:21:42.992Z,1.15
2023-05-13T05:24:14.753Z,2.90
2023-05-13T05:26:42.906Z,0.52
2023-05-13T05:29:12.770Z,0.98
2023-05-13T05:31:41.123Z,2.00
2023-05-13T05:34:10.567Z,3.58
2023-05-13T05:36:38.577Z,1.80
2023-05-13T05:39:06.020Z,3.63
2023-05-13T05:41:39.958Z,1.08
2023-05-13T05:44:07.281Z,1.05
2023-05-13T05:46:36.855Z,0.82
2023-05-13T05:49:04.300Z,4.63
2023-05-13T05:51:36.999Z,4.15
2023-05-13T05:54:06.177Z,1.05
2023-05-13T05:59:03.625Z,1.33
2023-05-13T06:01:36.654Z,1.27
2023-05-13T06:04:04.614Z,0.70
2023-05-13T06:06:32.968Z,1.08
2023-05-13T06:11:48.844Z,0.47
2023-05-13T06:14:21.925Z,1.48
2023-05-13T06:16:53.552Z,1.23
2023-05-13T06:19:21.745Z,0.90
2023-05-13T06:21:49.019Z,3.92
2023-05-13T06:24:19.289Z,0.57
2023-05-13T06:26:47.670Z,0.43
2023-05-13T06:29:24.453Z,5.25
2023-05-13T06:31:53.626Z,1.23
2023-05-13T06:36:54.014Z,0.98
2023-05-13T06:39:26.312Z,0.88
2023-05-13T06:41:55.024Z,0.68
2023-05-13T06:44:26.160Z,0.63
2023-05-13T06:46:55.530Z,1.58
2023-05-13T06:49:27.253Z,0.50
2023-05-13T06:51:54.487Z,1.77
2023-05-13T06:54:23.851Z,0.52
2023-05-13T06:56:54.755Z,0.60
2023-05-13T06:59:25.572Z,0.57
2023-05-13T07:01:55.400Z,0.73
2023-05-13T07:04:23.060Z,0.43
2023-05-13T07:06:56.763Z,0.25
2023-05-13T07:09:25.337Z,0.30
2023-05-13T07:14:26.431Z,1.13
2023-05-13T07:16:54.734Z,4.28
2023-05-13T07:19:22.025Z,0.50
2023-05-13T07:21:49.734Z,0.80
2023-05-13T07:24:17.000Z,2.97
2023-05-13T07:26:44.588Z,0.45
2023-05-13T07:29:11.732Z,0.93
2023-05-13T07:31:44.299Z,0.80
2023-05-13T07:34:11.537Z,0.57
2023-05-13T07:36:41.780Z,1.17
2023-05-13T07:39:09.430Z,1.80
2023-05-13T07:41:36.671Z,3.10
2023-05-13T07:44:13.763Z,0.55
2023-05-13T07:46:41.008Z,2.78
2023-05-13T07:49:08.887Z,0.65
2023-05-13T07:56:33.712Z,1.33
2023-05-13T07:59:01.053Z,0.38
2023-05-13T08:01:29.160Z,0.73
2023-05-13T08:03:59.437Z,4.03
2023-05-13T08:06:26.666Z,0.38
2023-05-13T08:11:22.045Z,1.42
2023-05-13T08:16:16.274Z,1.08
2023-05-13T08:18:43.549Z,0.93
2023-05-13T08:21:10.770Z,0.30
2023-05-13T08:23:45.768Z,0.43
2023-05-13T08:26:14.033Z,0.50
2023-05-13T08:28:42.467Z,1.48
2023-05-13T08:31:14.687Z,0.55
2023-05-13T08:33:42.745Z,2.80
2023-05-13T08:36:13.676Z,1.15
2023-05-13T08:38:42.779Z,0.95
2023-05-13T08:41:12.872Z,5.90
2023-05-13T08:43:41.756Z,1.65
2023-05-13T08:46:12.609Z,4.03
2023-05-13T08:48:41.437Z,0.40
2023-05-13T08:51:12.759Z,2.65
2023-05-13T08:53:41.011Z,1.73
2023-05-13T08:56:09.840Z,0.52
2023-05-13T08:58:43.255Z,1.48
2023-05-13T09:01:15.356Z,1.65
2023-05-13T09:03:55.662Z,0.35
2023-05-13T09:06:23.838Z,4.90
2023-05-13T09:08:51.102Z,0.57
2023-05-13T09:11:18.312Z,1.02
2023-05-13T09:13:45.539Z,0.45
2023-05-13T09:16:14.298Z,0.38
2023-05-13T09:18:48.081Z,0.82
2023-05-13T09:21:30.811Z,0.85
2023-05-13T09:24:23.927Z,0.85
2023-05-13T09:26:54.265Z,0.75
2023-05-13T09:29:22.377Z,2.65
2023-05-13T09:31:55.084Z,0.70
2023-05-13T09:34:34.387Z,1.15
2023-05-13T09:37:19.033Z,0.40
2023-05-13T09:39:57.229Z,1.70
2023-05-13T09:42:27.380Z,0.60
2023-05-13T09:44:57.030Z,5.18
2023-05-13T09:47:24.650Z,0.55
2023-05-13T09:49:59.434Z,1.65
2023-05-13T09:52:27.818Z,3.00
2023-05-13T09:54:59.460Z,1.67
2023-05-13T09:57:30.028Z,1.55
2023-05-13T09:59:59.502Z,2.22
2023-05-13T10:02:32.205Z,0.43
2023-05-13T10:04:59.577Z,4.20
2023-05-13T10:07:29.080Z,0.45
2023-05-13T10:10:02.742Z,1.42
2023-05-13T10:12:32.060Z,0.60
2023-05-13T10:15:01.782Z,0.63
2023-05-13T10:17:33.136Z,0.80
2023-05-13T10:20:06.625Z,0.45
2023-05-13T10:22:35.079Z,0.60
2023-05-13T10:25:05.120Z,1.13
2023-05-13T10:27:33.711Z,1.17
2023-05-13T10:30:03.671Z,0.63
2023-05-13T10:32:31.692Z,2.75
2023-05-13T10:35:10.621Z,0.73
2023-05-13T10:37:55.987Z,0.70
2023-05-13T10:40:38.045Z,4.18
2023-05-13T10:43:17.141Z,1.08
2023-05-13T10:45:51.520Z,0.73
2023-05-13T10:48:22.458Z,0.95
2023-05-13T10:51:02.213Z,0.80
2023-05-13T10:53:31.791Z,2.80
2023-05-13T10:56:00.080Z,0.60
2023-05-13T10:58:30.862Z,0.98
2023-05-13T11:01:16.311Z,5.82
2023-05-13T11:03:54.731Z,1.75
2023-05-13T11:06:24.173Z,4.18
2023-05-13T11:08:55.770Z,1.85
2023-05-13T11:11:23.268Z,0.90
2023-05-13T11:13:52.745Z,0.52
2023-05-13T11:16:21.253Z,0.60
2023-05-13T11:18:49.257Z,1.25
2023-05-13T11:21:16.662Z,0.57
2023-05-13T11:23:57.149Z,0.82
2023-05-13T11:26:25.618Z,1.65
2023-05-13T11:28:56.049Z,3.88
2023-05-13T11:31:24.423Z,0.68
2023-05-13T11:34:10.575Z,0.95
2023-05-13T11:36:39.712Z,4.90
2023-05-13T11:39:06.951Z,1.33
2023-05-13T11:41:37.986Z,1.13
2023-05-13T11:44:05.978Z,0.82
2023-05-13T11:46:33.377Z,2.35
2023-05-13T11:49:00.690Z,1.80
2023-05-13T11:51:28.739Z,0.50
2023-05-13T11:54:05.748Z,0.70
2023-05-13T11:56:32.955Z,0.73
2023-05-13T11:59:14.941Z,1.38
2023-05-13T12:01:42.135Z,0.47
2023-05-13T12:04:09.315Z,0.47
2023-05-13T12:06:48.871Z,1.02
2023-05-13T12:09:16.032Z,0.32
2023-05-13T12:11:44.071Z,1.30
2023-05-13T12:14:11.594Z,0.30
2023-05-13T12:16:38.965Z,1.38
2023-05-13T12:19:07.215Z,0.68
2023-05-13T12:21:34.760Z,0.70
2023-05-13T12:24:02.204Z,1.73
2023-05-13T12:26:31.787Z,1.20
2023-05-13T12:28:59.930Z,1.38
2023-05-13T12:31:27.474Z,0.95
2023-05-13T12:33:54.667Z,0.50
2023-05-13T12:36:33.633Z,0.45
2023-05-13T12:39:10.991Z,0.38
2023-05-13T12:41:40.823Z,0.90
2023-05-13T12:44:14.107Z,0.32
2023-05-13T12:46:54.563Z,0.38
2023-05-13T12:49:22.412Z,0.43
2023-05-13T12:54:22.000Z,0.20
2023-05-13T12:56:52.169Z,0.43
2023-05-13T12:59:19.323Z,0.73
2023-05-13T13:01:48.358Z,0.40
2023-05-13T13:04:17.268Z,0.93
2023-05-13T13:06:44.697Z,0.30
2023-05-13T13:09:11.919Z,0.85
2023-05-13T13:11:39.372Z,0.57
2023-05-13T13:14:06.570Z,1.40
2023-05-13T13:16:35.778Z,1.65
2023-05-13T13:19:02.908Z,0.65
2023-05-13T13:21:32.499Z,0.57
2023-05-13T13:23:59.814Z,1.40
2023-05-13T13:26:29.656Z,0.73
2023-05-13T13:28:57.185Z,0.32
2023-05-13T13:31:24.344Z,0.30
2023-05-13T13:33:51.421Z,0.43
2023-05-13T13:36:19.418Z,2.75
2023-05-13T13:38:46.587Z,1.85
2023-05-13T13:41:14.599Z,0.50
2023-05-13T13:43:41.816Z,1.10
2023-05-13T13:46:09.268Z,1.77
2023-05-13T13:48:36.565Z,0.85
2023-05-13T13:51:03.996Z,0.88
2023-05-13T13:53:31.356Z,0.10
2023-05-13T13:55:58.560Z,0.65
2023-05-13T13:58:26.355Z,1.85
2023-05-13T14:03:21.035Z,0.55
2023-05-13T14:05:48.730Z,0.73
2023-05-13T14:08:16.058Z,0.30
2023-05-13T14:10:43.818Z,1.45
2023-05-13T14:15:39.354Z,1.50
2023-05-13T14:18:08.029Z,0.40
2023-05-13T14:20:36.005Z,1.67
2023-05-13T14:25:33.192Z,1.52
2023-05-13T14:28:00.667Z,1.30
2023-05-13T14:30:28.025Z,0.30
2023-05-13T14:32:55.413Z,1.02
2023-05-13T14:35:22.700Z,1.10
2023-05-13T14:37:50.007Z,3.90
2023-05-13T14:40:17.283Z,0.32
2023-05-13T14:42:45.130Z,0.35
2023-05-13T14:47:44.924Z,5.30
2023-05-13T14:50:12.618Z,1.65
2023-05-13T14:52:39.981Z,1.05
2023-05-13T14:55:07.655Z,0.70
2023-05-13T14:57:34.917Z,1.15
2023-05-13T15:00:03.136Z,1.15
2023-05-13T15:02:30.679Z,1.08
2023-05-13T15:04:58.136Z,0.57
2023-05-13T15:07:25.888Z,0.57
2023-05-13T15:12:20.461Z,0.65
2023-05-13T15:14:55.215Z,1.50
2023-05-13T15:17:22.667Z,1.90
2023-05-13T15:19:50.141Z,2.65
2023-05-13T15:22:18.279Z,1.73
2023-05-13T15:24:45.686Z,0.73
2023-05-13T15:27:13.005Z,1.75
2023-05-13T15:29:40.360Z,0.30
2023-05-13T15:32:07.874Z,0.52
2023-05-13T15:34:35.148Z,1.55
2023-05-13T15:37:02.500Z,1.52
2023-05-13T15:39:29.816Z,0.43
2023-05-13T15:41:57.079Z,1.00
2023-05-13T15:44:25.197Z,0.88
2023-05-13T15:46:52.652Z,1.50
2023-05-13T15:49:20.031Z,0.30
2023-05-13T15:51:47.385Z,0.63
2023-05-13T15:54:14.662Z,0.88
2023-05-13T15:56:41.971Z,0.85
2023-05-13T15:59:15.038Z,1.83
2023-05-13T16:01:42.364Z,0.80
2023-05-13T16:04:09.652Z,0.70
2023-05-13T16:06:36.947Z,5.15
2023-05-13T16:09:04.493Z,1.67
2023-05-13T16:11:31.805Z,6.22
2023-05-13T16:13:59.103Z,1.13
2023-05-13T16:16:26.884Z,0.22
2023-05-13T16:18:54.486Z,2.58
2023-05-13T16:21:22.028Z,1.60
2023-05-13T16:23:51.125Z,1.50
2023-05-13T16:26:18.716Z,0.45
2023-05-13T16:28:46.314Z,1.33
2023-05-13T16:31:13.600Z,0.60
2023-05-13T16:33:41.175Z,1.08
2023-05-13T16:36:10.246Z,1.65
2023-05-13T16:38:38.877Z,0.80
2023-05-13T16:41:05.983Z,0.50
2023-05-13T16:43:33.194Z,0.52
2023-05-13T16:46:00.299Z,0.77
2023-05-13T16:48:30.489Z,5.53
2023-05-13T16:50:57.672Z,0.75
2023-05-13T16:53:26.296Z,0.80
2023-05-13T16:55:53.643Z,5.25
2023-05-13T16:58:21.277Z,1.08
2023-05-13T17:00:48.538Z,0.70
2023-05-13T17:03:16.159Z,3.67
2023-05-13T17:05:48.905Z,1.17
2023-05-13T17:08:18.888Z,2.17
2023-05-13T17:10:46.081Z,2.17
2023-05-13T17:13:13.598Z,2.30
2023-05-13T17:15:40.842Z,0.45
2023-05-13T17:18:08.392Z,0.45
2023-05-13T17:20:35.669Z,1.42
2023-05-13T17:23:02.828Z,2.13
2023-05-13T17:25:30.647Z,10.50
2023-05-13T17:27:57.878Z,1.85
2023-05-13T17:30:28.155Z,1.80
2023-05-13T17:32:55.493Z,0.65
2023-05-13T17:35:23.179Z,1.70
2023-05-13T17:37:50.298Z,1.40
2023-05-13T17:40:17.419Z,0.95
2023-05-13T17:42:44.776Z,2.38
2023-05-13T17:45:12.353Z,2.03
2023-05-13T17:47:39.637Z,2.70
2023-05-13T17:50:07.912Z,1.08
2023-05-13T17:52:35.208Z,7.20
2023-05-13T17:55:02.454Z,0.47
2023-05-13T17:57:32.385Z,2.40
2023-05-13T18:00:07.694Z,0.82
2023-05-13T18:02:36.263Z,1.23
2023-05-13T18:05:03.640Z,1.98
2023-05-13T18:07:34.341Z,3.47
2023-05-13T18:10:04.450Z,1.02
2023-05-13T18:12:32.777Z,0.50
2023-05-13T18:14:59.948Z,0.95
2023-05-13T18:17:27.957Z,2.55
2023-05-13T18:20:03.910Z,1.38
2023-05-13T18:22:32.672Z,1.02
2023-05-13T18:24:59.871Z,2.15
2023-05-13T18:27:44.191Z,1.15
2023-05-13T18:30:36.043Z,0.68
2023-05-13T18:33:06.314Z,12.55
2023-05-13T18:35:34.723Z,2.13
2023-05-13T18:38:03.967Z,0.60
2023-05-13T18:40:41.049Z,1.55
2023-05-13T18:43:11.227Z,1.15
2023-05-13T18:45:38.574Z,3.05
2023-05-13T18:48:06.208Z,0.70
2023-05-13T18:50:33.443Z,0.73
2023-05-13T18:53:00.600Z,0.85
2023-05-13T18:55:27.775Z,6.88
2023-05-13T18:57:54.888Z,1.30
2023-05-13T19:00:26.067Z,1.55
2023-05-13T19:02:58.718Z,1.15
2023-05-13T19:05:26.237Z,0.55
2023-05-13T19:07:53.398Z,2.20
2023-05-13T19:10:20.863Z,0.80
2023-05-13T19:12:48.056Z,1.35
2023-05-13T19:15:15.333Z,1.77
2023-05-13T19:17:42.615Z,0.85
2023-05-13T19:20:12.126Z,0.60
2023-05-13T19:22:39.320Z,1.27
2023-05-13T19:25:06.727Z,1.42
2023-05-13T19:27:33.996Z,3.25
2023-05-13T19:30:01.544Z,3.90
2023-05-13T19:34:58.142Z,2.53
2023-05-13T19:37:27.634Z,1.20
2023-05-13T19:39:54.792Z,0.65
2023-05-13T19:42:24.952Z,1.00
2023-05-13T19:44:53.612Z,4.93
2023-05-13T19:47:21.462Z,0.70
2023-05-13T19:49:53.103Z,1.77
2023-05-13T19:52:22.296Z,1.08
2023-05-13T19:54:49.884Z,3.00
2023-05-13T19:57:17.019Z,0.98
2023-05-13T19:59:44.170Z,1.00
2023-05-13T20:02:14.423Z,0.50
2023-05-13T20:04:42.541Z,1.38
2023-05-13T20:07:11.034Z,0.82
2023-05-13T20:09:38.249Z,1.83
2023-05-13T20:12:11.669Z,1.02
2023-05-13T20:14:47.021Z,2.00
2023-05-13T20:17:19.109Z,2.33
2023-05-13T20:19:49.574Z,0.80
2023-05-13T20:22:18.489Z,1.13
2023-05-13T20:24:49.365Z,0.68
2023-05-13T20:27:23.244Z,0.85
2023-05-13T20:29:51.702Z,8.90
2023-05-13T20:32:25.009Z,1.08
2023-05-13T20:34:52.872Z,1.30
2023-05-13T20:37:22.763Z,0.98
2023-05-13T20:39:51.651Z,1.23
2023-05-13T20:42:25.036Z,1.52
2023-05-13T20:44:52.352Z,3.90
2023-05-13T20:47:22.955Z,5.57
2023-05-13T20:49:50.181Z,4.35
2023-05-13T20:52:17.551Z,2.63
2023-05-13T20:54:44.802Z,0.75
2023-05-13T20:57:12.166Z,0.77
2023-05-13T20:59:39.338Z,1.38
2023-05-13T21:02:08.658Z,1.73
2023-05-13T21:04:35.902Z,9.73
2023-05-13T21:07:07.923Z,1.27
2023-05-13T21:09:35.047Z,1.85
2023-05-13T21:12:05.352Z,2.25
2023-05-13T21:14:32.557Z,3.58
2023-05-13T21:17:03.127Z,2.10
2023-05-13T21:19:36.101Z,2.63
2023-05-13T21:22:05.895Z,1.23
2023-05-13T21:24:34.893Z,5.25
2023-05-13T21:27:04.731Z,0.77
2023-05-13T21:29:31.895Z,4.35
2023-05-13T21:31:59.034Z,1.45
2023-05-13T21:34:26.848Z,1.67
2023-05-13T21:36:54.035Z,0.70
2023-05-13T21:39:21.326Z,7.88
2023-05-13T21:41:48.674Z,1.58
2023-05-13T21:44:16.321Z,1.42
2023-05-13T21:46:46.222Z,1.48
2023-05-13T21:49:13.524Z,0.93
2023-05-13T21:51:41.662Z,2.92
2023-05-13T21:54:08.835Z,4.07
2023-05-13T21:56:38.723Z,2.17
2023-05-13T21:59:05.873Z,2.70
2023-05-13T22:01:33.284Z,1.15
2023-05-13T22:04:00.378Z,3.70
2023-05-13T22:06:27.542Z,2.17
2023-05-13T22:09:01.305Z,0.70
2023-05-13T22:11:29.540Z,7.85
2023-05-13T22:13:56.698Z,2.85
2023-05-13T22:16:24.007Z,3.13
2023-05-13T22:18:51.354Z,3.28
2023-05-13T22:21:18.703Z,2.72
2023-05-13T22:23:48.402Z,2.10
2023-05-13T22:26:15.710Z,1.63
2023-05-13T22:28:42.868Z,2.13
2023-05-13T22:31:10.685Z,0.80
2023-05-13T22:33:40.937Z,2.03
2023-05-13T22:36:08.631Z,2.05
2023-05-13T22:38:54.825Z,0.82
2023-05-13T22:41:26.339Z,1.08
2023-05-13T22:43:53.621Z,2.90
2023-05-13T22:46:20.937Z,2.20
2023-05-13T22:48:48.226Z,1.08
2023-05-13T22:51:21.364Z,2.33
2023-05-13T22:53:48.637Z,3.33
2023-05-13T22:56:19.111Z,2.00
2023-05-13T22:58:46.502Z,1.58
2023-05-13T23:01:15.230Z,1.67
2023-05-13T23:03:42.835Z,2.05
2023-05-13T23:06:11.181Z,2.33
2023-05-13T23:08:38.347Z,3.38
2023-05-13T23:11:05.726Z,1.90
2023-05-13T23:13:32.788Z,2.63
2023-05-13T23:15:59.913Z,1.52
2023-05-13T23:18:30.064Z,4.38
2023-05-13T23:21:00.953Z,2.00
2023-05-13T23:23:30.618Z,2.78
2023-05-13T23:26:00.799Z,5.35
2023-05-13T23:28:27.897Z,3.55
2023-05-13T23:30:58.082Z,1.98
2023-05-13T23:33:26.059Z,3.53
2023-05-13T23:35:54.241Z,1.67
2023-05-13T23:38:21.601Z,2.88
2023-05-13T23:40:51.509Z,9.57
2023-05-13T23:43:18.655Z,1.88
2023-05-13T23:45:46.480Z,2.42
2023-05-13T23:48:17.770Z,2.92
2023-05-13T23:50:44.868Z,3.20
2023-05-13T23:53:12.044Z,4.88
2023-05-13T23:55:39.174Z,3.13
2023-05-13T23:58:06.837Z,2.70
